createdAt,value
2019-03-24T00:01:04.330Z,7.80
2019-03-24T00:03:34.020Z,9.83
2019-03-24T00:06:03.754Z,10.07
2019-03-24T00:08:34.318Z,9.50
2019-03-24T00:11:04.593Z,8.70
2019-03-24T00:13:34.691Z,8.00
2019-03-24T00:16:04.399Z,8.33
2019-03-24T00:18:34.395Z,7.00
2019-03-24T00:21:04.420Z,8.20
2019-03-24T00:23:34.449Z,5.70
2019-03-24T00:26:04.566Z,5.67
2019-03-24T00:28:34.353Z,7.10
2019-03-24T00:31:04.008Z,6.53
2019-03-24T00:33:34.113Z,6.27
2019-03-24T00:36:03.797Z,6.50
2019-03-24T00:38:34.146Z,9.73
2019-03-24T00:41:04.190Z,6.53
2019-03-24T00:43:33.877Z,6.50
2019-03-24T00:46:03.741Z,5.87
2019-03-24T00:48:33.467Z,6.67
2019-03-24T00:51:03.154Z,7.10
2019-03-24T00:53:33.320Z,6.87
2019-03-24T00:56:03.433Z,7.27
2019-03-24T00:58:33.362Z,7.07
2019-03-24T01:01:03.091Z,5.53
2019-03-24T01:03:32.795Z,4.90
2019-03-24T01:06:02.659Z,6.83
2019-03-24T01:08:32.331Z,7.23
2019-03-24T01:11:02.026Z,7.17
2019-03-24T01:13:31.718Z,5.43
2019-03-24T01:16:01.414Z,7.60
2019-03-24T01:18:31.112Z,6.70
2019-03-24T01:21:01.388Z,5.67
2019-03-24T01:23:31.106Z,6.73
2019-03-24T01:26:00.968Z,6.10
2019-03-24T01:28:33.374Z,6.80
2019-03-24T01:31:03.092Z,7.20
2019-03-24T01:33:33.708Z,6.83
2019-03-24T01:36:03.608Z,6.50
2019-03-24T01:38:33.415Z,6.50
2019-03-24T01:41:03.465Z,6.70
2019-03-24T01:43:33.335Z,6.80
2019-03-24T01:46:03.086Z,6.07
2019-03-24T01:48:33.439Z,6.43
2019-03-24T01:51:03.148Z,6.83
2019-03-24T01:53:33.053Z,6.87
2019-03-24T01:56:02.720Z,6.90
2019-03-24T01:58:32.437Z,6.10
2019-03-24T02:01:02.694Z,6.95
2019-03-24T02:03:32.361Z,6.33
2019-03-24T02:06:02.477Z,6.65
2019-03-24T02:08:32.215Z,7.30
2019-03-24T02:11:01.967Z,5.70
2019-03-24T02:13:32.194Z,5.40
2019-03-24T02:16:09.268Z,6.67
2019-03-24T02:18:33.590Z,5.97
2019-03-24T02:21:03.558Z,6.67
2019-03-24T02:23:33.696Z,6.03
2019-03-24T02:26:03.366Z,6.67
2019-03-24T02:28:33.392Z,5.70
2019-03-24T02:31:03.123Z,6.87
2019-03-24T02:33:33.331Z,4.97
2019-03-24T02:36:03.432Z,6.22
2019-03-24T02:38:33.108Z,6.27
2019-03-24T02:41:02.938Z,4.73
2019-03-24T02:43:33.001Z,5.63
2019-03-24T02:46:02.684Z,6.13
2019-03-24T02:48:32.588Z,6.53
2019-03-24T02:51:02.622Z,5.70
2019-03-24T02:53:32.308Z,5.70
2019-03-24T02:56:02.564Z,5.37
2019-03-24T02:58:32.248Z,5.10
2019-03-24T03:01:02.303Z,6.30
2019-03-24T03:03:32.030Z,6.13
2019-03-24T03:06:02.134Z,5.07
2019-03-24T03:08:31.888Z,5.80
2019-03-24T03:11:02.008Z,7.50
2019-03-24T03:13:31.816Z,6.80
2019-03-24T03:16:01.810Z,6.93
2019-03-24T03:18:32.572Z,6.10
2019-03-24T03:21:03.797Z,5.50
2019-03-24T03:23:33.951Z,6.63
2019-03-24T03:26:03.620Z,5.60
2019-03-24T03:28:33.914Z,5.93
2019-03-24T03:31:03.619Z,6.60
2019-03-24T03:33:33.283Z,5.87
2019-03-24T03:36:03.115Z,5.17
2019-03-24T03:38:32.817Z,6.40
2019-03-24T03:41:02.723Z,5.70
2019-03-24T03:43:32.881Z,5.03
2019-03-24T03:46:02.633Z,6.17
2019-03-24T03:48:32.654Z,5.63
2019-03-24T03:51:02.386Z,6.37
2019-03-24T03:53:33.124Z,6.30
2019-03-24T03:56:03.140Z,5.07
2019-03-24T03:58:33.136Z,5.50
2019-03-24T04:01:02.954Z,6.80
2019-03-24T04:03:32.704Z,6.53
2019-03-24T04:06:02.783Z,8.23
2019-03-24T04:08:32.932Z,5.97
2019-03-24T04:11:02.694Z,6.93
2019-03-24T04:13:32.399Z,7.80
2019-03-24T04:16:02.335Z,5.53
2019-03-24T04:18:32.077Z,5.53
2019-03-24T04:21:01.755Z,5.70
2019-03-24T04:23:31.479Z,5.30
2019-03-24T04:26:01.209Z,5.87
2019-03-24T04:28:30.929Z,6.53
2019-03-24T04:31:01.434Z,6.70
2019-03-24T04:33:31.353Z,7.40
2019-03-24T04:36:01.436Z,6.65
2019-03-24T04:38:31.174Z,6.93
2019-03-24T04:41:00.995Z,6.47
2019-03-24T04:43:30.731Z,6.63
2019-03-24T04:46:00.440Z,5.67
2019-03-24T04:48:30.151Z,8.37
2019-03-24T04:50:59.849Z,5.77
2019-03-24T04:53:29.948Z,5.60
2019-03-24T04:55:59.947Z,6.00
2019-03-24T04:58:29.638Z,6.20
2019-03-24T05:00:59.397Z,6.30
2019-03-24T05:03:29.136Z,6.10
2019-03-24T05:05:58.804Z,5.90
2019-03-24T05:08:28.665Z,5.97
2019-03-24T05:10:58.848Z,6.80
2019-03-24T05:13:28.575Z,6.23
2019-03-24T05:15:58.614Z,6.30
2019-03-24T05:18:29.167Z,6.37
2019-03-24T05:20:59.272Z,6.87
2019-03-24T05:23:28.969Z,5.80
2019-03-24T05:25:58.660Z,6.40
2019-03-24T05:28:28.872Z,6.50
2019-03-24T05:30:58.875Z,7.13
2019-03-24T05:33:28.998Z,6.90
2019-03-24T05:35:58.684Z,5.80
2019-03-24T05:38:28.778Z,6.47
2019-03-24T05:40:58.503Z,6.73
2019-03-24T05:43:28.477Z,7.27
2019-03-24T05:45:58.214Z,7.23
2019-03-24T05:48:28.327Z,6.53
2019-03-24T05:50:58.372Z,6.40
2019-03-24T05:53:28.074Z,7.77
2019-03-24T05:55:58.205Z,6.90
2019-03-24T05:58:27.893Z,5.40
2019-03-24T06:00:57.597Z,5.80
2019-03-24T06:03:27.491Z,7.17
2019-03-24T06:05:57.538Z,7.00
2019-03-24T06:08:27.225Z,8.80
2019-03-24T06:10:57.141Z,6.97
2019-03-24T06:13:27.107Z,7.70
2019-03-24T06:15:56.791Z,6.40
2019-03-24T06:18:26.535Z,6.70
2019-03-24T06:20:56.249Z,6.97
2019-03-24T06:23:26.516Z,6.47
2019-03-24T06:25:56.608Z,7.23
2019-03-24T06:28:26.315Z,6.53
2019-03-24T06:30:56.117Z,9.10
2019-03-24T06:33:26.239Z,6.97
2019-03-24T06:35:55.929Z,7.43
2019-03-24T06:38:26.015Z,7.60
2019-03-24T06:40:56.929Z,7.33
2019-03-24T06:43:27.103Z,7.50
2019-03-24T06:45:56.906Z,8.83
2019-03-24T06:48:26.684Z,8.60
2019-03-24T06:50:56.870Z,7.60
2019-03-24T06:53:26.843Z,6.90
2019-03-24T06:55:56.620Z,7.73
2019-03-24T06:58:26.649Z,7.43
2019-03-24T07:00:56.556Z,7.93
2019-03-24T07:03:26.233Z,8.53
2019-03-24T07:05:56.239Z,7.37
2019-03-24T07:08:26.128Z,8.97
2019-03-24T07:10:55.843Z,6.97
2019-03-24T07:13:26.265Z,6.70
2019-03-24T07:15:55.986Z,6.40
2019-03-24T07:18:25.993Z,6.40
2019-03-24T07:20:56.292Z,7.90
2019-03-24T07:23:25.984Z,8.20
2019-03-24T07:25:56.029Z,7.67
2019-03-24T07:28:27.270Z,7.40
2019-03-24T07:30:57.314Z,5.53
2019-03-24T07:33:27.571Z,6.37
2019-03-24T07:35:57.565Z,8.03
2019-03-24T07:38:27.294Z,5.73
2019-03-24T07:40:57.494Z,6.47
2019-03-24T07:43:27.535Z,5.57
2019-03-24T07:45:57.530Z,3.40
2019-03-24T07:48:27.246Z,3.47
2019-03-24T07:50:56.927Z,6.30
2019-03-24T07:53:26.640Z,5.20
2019-03-24T07:55:56.447Z,7.43
2019-03-24T07:58:26.492Z,5.20
2019-03-24T08:00:57.013Z,6.80
2019-03-24T08:03:26.711Z,6.70
2019-03-24T08:05:57.193Z,6.27
2019-03-24T08:08:26.923Z,7.70
2019-03-24T08:10:57.847Z,6.37
2019-03-24T08:13:28.833Z,7.47
2019-03-24T08:15:59.290Z,7.40
2019-03-24T08:18:30.196Z,5.83
2019-03-24T08:21:00.091Z,7.87
2019-03-24T08:23:30.605Z,6.83
2019-03-24T08:26:00.700Z,14.40
2019-03-24T08:28:30.940Z,5.70
2019-03-24T08:31:00.648Z,6.90
2019-03-24T08:33:30.641Z,5.23
2019-03-24T08:36:01.093Z,5.10
2019-03-24T08:38:31.181Z,6.20
2019-03-24T08:41:01.403Z,6.00
2019-03-24T08:43:32.031Z,7.10
2019-03-24T08:46:02.371Z,5.40
2019-03-24T08:48:40.531Z,5.13
2019-03-24T08:51:04.963Z,5.60
2019-03-24T08:53:34.955Z,7.03
2019-03-24T08:56:05.017Z,6.50
2019-03-24T08:58:35.197Z,5.40
2019-03-24T09:01:05.034Z,9.27
2019-03-24T09:03:35.809Z,5.40
2019-03-24T09:06:05.505Z,5.13
2019-03-24T09:08:35.272Z,6.03
2019-03-24T09:11:05.758Z,3.40
2019-03-24T09:13:35.456Z,5.47
2019-03-24T09:16:05.681Z,3.73
2019-03-24T09:18:35.358Z,4.70
2019-03-24T09:21:05.495Z,5.28
2019-03-24T09:23:35.930Z,5.10
2019-03-24T09:26:06.252Z,5.17
2019-03-24T09:28:36.382Z,7.50
2019-03-24T09:31:06.067Z,7.57
2019-03-24T09:33:36.752Z,5.47
2019-03-24T09:36:06.453Z,5.17
2019-03-24T09:38:36.130Z,5.97
2019-03-24T09:41:05.897Z,7.40
2019-03-24T09:43:35.966Z,26.00
2019-03-24T09:46:05.679Z,7.20
2019-03-24T09:48:35.363Z,3.90
2019-03-24T09:51:05.086Z,5.87
2019-03-24T09:53:35.640Z,4.50
2019-03-24T09:56:05.337Z,6.80
2019-03-24T09:58:35.212Z,6.27
2019-03-24T10:01:04.946Z,4.60
2019-03-24T10:03:36.340Z,5.10
2019-03-24T10:06:06.028Z,4.30
2019-03-24T10:08:46.602Z,7.80
2019-03-24T10:11:07.212Z,4.72
2019-03-24T10:13:36.911Z,5.23
2019-03-24T10:16:06.612Z,5.37
2019-03-24T10:18:36.348Z,5.43
2019-03-24T10:21:07.261Z,5.50
2019-03-24T10:23:36.981Z,5.03
2019-03-24T10:26:07.126Z,5.07
2019-03-24T10:28:37.259Z,4.73
2019-03-24T10:31:07.308Z,3.60
2019-03-24T10:33:37.133Z,4.10
2019-03-24T10:36:06.831Z,3.40
2019-03-24T10:38:36.922Z,3.60
2019-03-24T10:41:08.465Z,3.40
2019-03-24T10:43:38.909Z,4.20
2019-03-24T10:46:08.728Z,3.57
2019-03-24T10:48:38.491Z,2.60
2019-03-24T10:51:08.247Z,4.07
2019-03-24T10:53:37.932Z,4.60
2019-03-24T10:56:07.632Z,5.70
2019-03-24T10:58:37.389Z,6.57
2019-03-24T11:01:07.088Z,7.40
2019-03-24T11:03:36.835Z,5.63
2019-03-24T11:06:07.092Z,7.17
2019-03-24T11:08:36.815Z,5.80
2019-03-24T11:11:06.505Z,4.17
2019-03-24T11:13:36.217Z,7.33
2019-03-24T11:16:06.290Z,3.83
2019-03-24T11:18:36.252Z,3.10
2019-03-24T11:21:05.933Z,3.20
2019-03-24T11:23:35.901Z,3.80
2019-03-24T11:26:05.726Z,3.13
2019-03-24T11:28:35.427Z,5.10
2019-03-24T11:31:05.113Z,5.33
2019-03-24T11:33:34.815Z,5.00
2019-03-24T11:36:04.821Z,2.10
2019-03-24T11:38:34.537Z,2.00
2019-03-24T11:41:04.352Z,3.30
2019-03-24T11:43:35.156Z,3.57
2019-03-24T11:46:05.130Z,3.87
2019-03-24T11:48:35.245Z,4.53
2019-03-24T11:51:05.265Z,3.50
2019-03-24T11:53:35.021Z,4.63
2019-03-24T11:56:04.964Z,3.47
2019-03-24T11:58:35.156Z,3.83
2019-03-24T12:01:04.845Z,3.23
2019-03-24T12:03:34.840Z,4.43
2019-03-24T12:06:13.873Z,3.33
2019-03-24T12:08:36.140Z,5.37
2019-03-24T12:11:07.589Z,4.10
2019-03-24T12:13:37.315Z,4.80
2019-03-24T12:16:07.030Z,3.87
2019-03-24T12:18:36.766Z,4.70
2019-03-24T12:21:06.513Z,4.50
2019-03-24T12:23:37.256Z,3.90
2019-03-24T12:26:07.178Z,3.37
2019-03-24T12:28:36.849Z,4.60
2019-03-24T12:31:06.819Z,4.23
2019-03-24T12:33:36.906Z,5.17
2019-03-24T12:36:06.961Z,4.87
2019-03-24T12:38:36.724Z,3.40
2019-03-24T12:41:06.636Z,3.03
2019-03-24T12:43:37.048Z,2.97
2019-03-24T12:46:07.133Z,2.83
2019-03-24T12:48:37.241Z,3.57
2019-03-24T12:51:07.341Z,3.00
2019-03-24T12:53:37.333Z,2.03
2019-03-24T12:56:07.075Z,2.10
2019-03-24T12:58:36.746Z,2.50
2019-03-24T13:01:06.794Z,2.80
2019-03-24T13:03:36.846Z,3.30
2019-03-24T13:06:07.981Z,2.40
2019-03-24T13:08:38.402Z,2.50
2019-03-24T13:11:08.102Z,2.92
2019-03-24T13:13:38.252Z,3.20
2019-03-24T13:16:07.985Z,2.77
2019-03-24T13:18:37.692Z,2.20
2019-03-24T13:21:07.443Z,2.80
2019-03-24T13:23:37.458Z,2.27
2019-03-24T13:26:07.639Z,2.33
2019-03-24T13:28:38.501Z,2.00
2019-03-24T13:31:08.267Z,2.43
2019-03-24T13:33:38.292Z,2.60
2019-03-24T13:36:13.114Z,1.80
2019-03-24T13:38:43.123Z,3.10
2019-03-24T13:41:12.876Z,2.70
2019-03-24T13:43:43.386Z,4.17
2019-03-24T13:46:14.212Z,2.20
2019-03-24T13:48:43.876Z,2.30
2019-03-24T13:51:13.690Z,2.90
2019-03-24T13:53:44.298Z,2.63
2019-03-24T13:56:14.406Z,2.33
2019-03-24T13:58:48.192Z,2.20
2019-03-24T14:01:18.008Z,2.00
2019-03-24T14:03:47.786Z,2.13
2019-03-24T14:06:17.854Z,2.70
2019-03-24T14:08:48.663Z,2.33
2019-03-24T14:11:18.357Z,2.80
2019-03-24T14:13:48.540Z,1.63
2019-03-24T14:16:18.335Z,2.70
2019-03-24T14:18:48.738Z,2.10
2019-03-24T14:21:18.759Z,3.03
2019-03-24T14:23:48.648Z,2.60
2019-03-24T14:26:20.232Z,1.93
2019-03-24T14:28:49.955Z,2.97
2019-03-24T14:31:19.768Z,1.40
2019-03-24T14:33:49.796Z,1.37
2019-03-24T14:36:19.865Z,2.03
2019-03-24T14:38:49.630Z,2.00
2019-03-24T14:41:19.339Z,1.83
2019-03-24T14:43:49.463Z,1.63
2019-03-24T14:46:19.525Z,2.00
2019-03-24T14:48:49.537Z,1.77
2019-03-24T14:51:20.208Z,1.87
2019-03-24T14:53:50.247Z,2.00
2019-03-24T14:56:19.971Z,1.37
2019-03-24T14:58:49.714Z,1.50
2019-03-24T15:01:20.211Z,1.80
2019-03-24T15:03:50.323Z,1.70
2019-03-24T15:06:21.819Z,2.40
2019-03-24T15:08:51.865Z,2.03
2019-03-24T15:11:21.981Z,2.20
2019-03-24T15:13:51.977Z,2.50
2019-03-24T15:16:22.025Z,2.70
2019-03-24T15:18:51.719Z,2.23
2019-03-24T15:21:21.853Z,1.50
2019-03-24T15:23:52.636Z,1.50
2019-03-24T15:26:22.459Z,1.90
2019-03-24T15:28:52.628Z,1.30
2019-03-24T15:31:22.687Z,1.80
2019-03-24T15:33:53.080Z,1.70
2019-03-24T15:36:22.834Z,1.80
2019-03-24T15:38:52.819Z,2.30
2019-03-24T15:41:23.564Z,1.93
2019-03-24T15:43:53.248Z,1.87
2019-03-24T15:46:24.702Z,1.70
2019-03-24T15:48:54.939Z,3.03
2019-03-24T15:51:24.975Z,1.10
2019-03-24T15:53:55.707Z,1.60
2019-03-24T15:56:26.259Z,2.17
2019-03-24T15:58:56.145Z,2.10
2019-03-24T16:01:26.405Z,1.77
2019-03-24T16:03:56.091Z,1.50
2019-03-24T16:06:25.843Z,1.80
2019-03-24T16:08:56.301Z,1.67
2019-03-24T16:11:26.266Z,1.40
2019-03-24T16:13:55.989Z,1.70
2019-03-24T16:16:26.033Z,1.77
2019-03-24T16:18:56.209Z,1.53
2019-03-24T16:21:28.062Z,1.00
2019-03-24T16:23:57.436Z,1.87
2019-03-24T16:26:27.167Z,1.40
2019-03-24T16:28:56.903Z,1.50
2019-03-24T16:31:26.905Z,1.40
2019-03-24T16:33:56.578Z,1.80
2019-03-24T16:36:26.290Z,1.50
2019-03-24T16:39:03.621Z,2.63
2019-03-24T16:41:28.103Z,2.07
2019-03-24T16:43:57.855Z,2.40
2019-03-24T16:46:28.823Z,2.57
2019-03-24T16:48:58.538Z,1.83
2019-03-24T16:51:38.218Z,2.67
2019-03-24T16:54:00.195Z,2.23
2019-03-24T16:56:29.910Z,1.70
2019-03-24T16:58:59.984Z,1.77
2019-03-24T17:01:30.070Z,1.60
2019-03-24T17:03:59.815Z,1.33
2019-03-24T17:06:29.604Z,1.50
2019-03-24T17:08:59.519Z,2.23
2019-03-24T17:11:29.232Z,1.80
2019-03-24T17:13:58.911Z,1.50
2019-03-24T17:16:29.001Z,2.07
2019-03-24T17:18:58.665Z,1.90
2019-03-24T17:21:29.223Z,1.93
2019-03-24T17:23:58.924Z,1.83
2019-03-24T17:26:29.063Z,2.40
2019-03-24T17:28:59.786Z,1.80
2019-03-24T17:31:29.511Z,1.50
2019-03-24T17:33:59.560Z,2.30
2019-03-24T17:36:29.301Z,1.93
2019-03-24T17:38:59.055Z,1.90
2019-03-24T17:41:29.446Z,1.80
2019-03-24T17:44:03.451Z,1.73
2019-03-24T17:46:33.046Z,1.83
2019-03-24T17:49:03.788Z,1.47
2019-03-24T17:51:33.684Z,1.67
2019-03-24T17:54:03.880Z,1.57
2019-03-24T17:56:33.671Z,1.87
2019-03-24T17:59:03.498Z,2.10
2019-03-24T18:01:33.244Z,2.30
2019-03-24T18:04:03.930Z,1.73
2019-03-24T18:06:34.029Z,2.30
2019-03-24T18:09:04.603Z,1.90
2019-03-24T18:11:35.009Z,1.80
2019-03-24T18:14:04.764Z,1.70
2019-03-24T18:16:35.870Z,2.90
2019-03-24T18:19:06.683Z,1.40
2019-03-24T18:21:37.343Z,1.90
2019-03-24T18:24:07.217Z,1.60
2019-03-24T18:26:37.359Z,1.93
2019-03-24T18:29:07.068Z,1.63
2019-03-24T18:31:36.861Z,1.87
2019-03-24T18:34:06.577Z,2.70
2019-03-24T18:36:36.355Z,2.00
2019-03-24T18:39:09.148Z,2.27
2019-03-24T18:41:38.947Z,1.70
2019-03-24T18:44:08.948Z,2.10
2019-03-24T18:46:39.506Z,1.97
2019-03-24T18:49:09.296Z,2.20
2019-03-24T18:51:39.047Z,1.97
2019-03-24T18:54:08.949Z,2.37
2019-03-24T18:56:38.666Z,2.07
2019-03-24T18:59:08.649Z,2.20
2019-03-24T19:01:38.771Z,2.20
2019-03-24T19:04:10.505Z,1.70
2019-03-24T19:06:40.771Z,2.77
2019-03-24T19:09:13.442Z,2.67
2019-03-24T19:11:44.350Z,2.92
2019-03-24T19:14:14.203Z,2.90
2019-03-24T19:16:44.257Z,3.98
2019-03-24T19:19:14.796Z,2.20
2019-03-24T19:21:44.479Z,3.90
2019-03-24T19:24:14.257Z,3.27
2019-03-24T19:26:44.113Z,3.10
2019-03-24T19:29:14.163Z,3.33
2019-03-24T19:31:44.188Z,2.90
2019-03-24T19:34:14.230Z,3.13
2019-03-24T19:36:44.133Z,3.53
2019-03-24T19:39:14.007Z,3.00
2019-03-24T19:41:43.861Z,3.87
2019-03-24T19:44:13.879Z,2.93
2019-03-24T19:46:44.127Z,3.60
2019-03-24T19:49:13.872Z,3.77
2019-03-24T19:51:43.766Z,3.63
2019-03-24T19:54:13.693Z,2.70
2019-03-24T19:56:43.988Z,4.20
2019-03-24T19:59:14.800Z,4.33
2019-03-24T20:01:45.021Z,3.93
2019-03-24T20:04:15.136Z,3.77
2019-03-24T20:06:45.181Z,3.63
2019-03-24T20:09:15.394Z,6.10
2019-03-24T20:11:45.265Z,3.60
2019-03-24T20:14:15.426Z,3.93
2019-03-24T20:16:46.081Z,4.00
2019-03-24T20:19:15.879Z,3.30
2019-03-24T20:21:45.601Z,3.40
2019-03-24T20:24:15.301Z,4.57
2019-03-24T20:26:45.053Z,4.10
2019-03-24T20:29:14.980Z,3.93
2019-03-24T20:31:45.002Z,4.00
2019-03-24T20:34:14.912Z,3.67
2019-03-24T20:36:45.408Z,4.33
2019-03-24T20:39:15.149Z,4.50
2019-03-24T20:41:45.067Z,3.77
2019-03-24T20:44:14.949Z,4.83
2019-03-24T20:46:44.670Z,4.43
2019-03-24T20:49:14.588Z,4.47
2019-03-24T20:51:44.321Z,4.57
2019-03-24T20:54:14.848Z,4.70
2019-03-24T20:56:44.718Z,5.93
2019-03-24T20:59:14.945Z,4.13
2019-03-24T21:01:44.638Z,5.00
2019-03-24T21:04:17.330Z,5.90
2019-03-24T21:06:47.423Z,4.45
2019-03-24T21:09:17.580Z,5.40
2019-03-24T21:11:48.027Z,5.27
2019-03-24T21:14:17.747Z,5.53
2019-03-24T21:16:47.729Z,6.90
2019-03-24T21:19:17.735Z,5.10
2019-03-24T21:21:47.587Z,7.53
2019-03-24T21:24:17.807Z,6.47
2019-03-24T21:26:47.635Z,5.17
2019-03-24T21:29:17.423Z,5.97
2019-03-24T21:31:48.530Z,5.35
2019-03-24T21:34:19.051Z,4.90
2019-03-24T21:36:49.507Z,4.50
2019-03-24T21:39:19.284Z,5.60
2019-03-24T21:41:49.362Z,5.07
2019-03-24T21:44:19.121Z,4.97
2019-03-24T21:46:48.842Z,4.50
2019-03-24T21:49:19.055Z,5.43
2019-03-24T21:51:49.215Z,4.80
2019-03-24T21:54:18.987Z,4.50
2019-03-24T21:56:49.092Z,3.53
2019-03-24T21:59:19.151Z,4.77
2019-03-24T22:01:48.913Z,5.53
2019-03-24T22:04:18.623Z,5.63
2019-03-24T22:06:48.598Z,4.90
2019-03-24T22:09:18.399Z,5.50
2019-03-24T22:11:49.070Z,5.47
2019-03-24T22:14:19.186Z,5.57
2019-03-24T22:16:48.876Z,4.70
2019-03-24T22:19:19.091Z,4.20
2019-03-24T22:21:49.123Z,5.10
2019-03-24T22:24:19.155Z,5.87
2019-03-24T22:26:49.325Z,4.63
2019-03-24T22:29:19.065Z,5.73
2019-03-24T22:31:48.948Z,5.33
2019-03-24T22:34:18.697Z,5.43
2019-03-24T22:36:48.428Z,5.70
2019-03-24T22:39:18.527Z,5.20
2019-03-24T22:41:48.660Z,4.78
2019-03-24T22:44:18.375Z,5.27
2019-03-24T22:46:48.691Z,4.83
2019-03-24T22:49:18.704Z,4.50
2019-03-24T22:51:48.432Z,5.27
2019-03-24T22:54:18.530Z,5.43
2019-03-24T22:56:48.297Z,6.63
2019-03-24T22:59:18.027Z,4.50
2019-03-24T23:01:47.807Z,5.17
2019-03-24T23:04:18.234Z,5.27
2019-03-24T23:06:48.314Z,5.13
2019-03-24T23:09:18.298Z,5.13
2019-03-24T23:11:48.358Z,5.33
2019-03-24T23:14:18.120Z,6.20
2019-03-24T23:16:47.913Z,5.93
2019-03-24T23:19:18.203Z,5.33
2019-03-24T23:21:48.281Z,6.10
2019-03-24T23:24:18.345Z,5.70
2019-03-24T23:26:48.459Z,5.33
2019-03-24T23:29:18.483Z,7.30
2019-03-24T23:31:48.246Z,5.40
2019-03-24T23:34:17.953Z,5.97
2019-03-24T23:36:47.697Z,5.27
2019-03-24T23:39:17.427Z,6.07
2019-03-24T23:41:47.114Z,4.87
2019-03-24T23:44:16.859Z,5.57
2019-03-24T23:46:46.582Z,6.20
2019-03-24T23:49:17.234Z,4.80
2019-03-24T23:51:46.945Z,4.03
2019-03-24T23:54:26.538Z,4.93
2019-03-24T23:56:48.377Z,5.53
2019-03-24T23:59:18.200Z,5.20
